Time;durP1;ratioP1;P1;durP2;ratioP2;P2;SDS_P1;SDS_P2;PMS_P1;PMS_P2;Temp;Humidity;BMP_temperature;BMP_pressure;BME280_temperature;BME280_humidity;BME280_pressure;Samples;Min_cycle;Max_cycle;Signal;HPM_P1;HPM_P2
2022/03/13 00:01:46;;;;;;;8.38;2.72;;;;;;;21.24;31.64;100339.38;4196899;28;20110;-67
2022/03/13 00:03:48;;;;;;;4.30;1.25;;;;;;;21.26;31.26;100353.00;4197461;28;20075;-68
2022/03/13 00:05:51;;;;;;;6.03;1.35;;;;;;;21.23;31.66;100354.41;4196722;28;20549;-67
2022/03/13 00:07:56;;;;;;;6.95;1.75;;;;;;;21.20;31.30;100354.16;4200447;28;20041;-67
2022/03/13 00:09:57;;;;;;;;;;;;;;;21.22;31.46;100374.19;4195580;28;20095;-67
2022/03/13 00:11:58;;;;;;;8.90;1.90;;;;;;;21.28;31.10;100384.13;4182851;28;19917;-68
2022/03/13 00:14:01;;;;;;;20.80;2.42;;;;;;;21.27;31.56;100388.88;4192276;28;20550;-66
2022/03/13 00:16:11;;;;;;;13.00;2.17;;;;;;;21.25;31.19;100402.25;4195553;28;20484;-67
2022/03/13 00:18:13;;;;;;;19.88;2.40;;;;;;;21.22;31.01;100396.47;4197048;28;20090;-67
2022/03/13 00:20:15;;;;;;;13.93;2.10;;;;;;;21.22;31.05;100405.63;4197263;28;20075;-67
2022/03/13 00:22:16;;;;;;;12.68;2.28;;;;;;;21.18;31.45;100406.53;4197681;28;20048;-68
2022/03/13 00:24:22;;;;;;;11.20;1.98;;;;;;;21.18;31.52;100424.03;4197166;28;20044;-68
2022/03/13 00:26:23;;;;;;;10.50;2.05;;;;;;;21.17;31.20;100427.94;4197643;28;20044;-66
2022/03/13 00:28:25;;;;;;;10.73;2.10;;;;;;;21.15;31.44;100435.75;4196730;28;20052;-67
2022/03/13 00:30:26;;;;;;;7.50;1.92;;;;;;;21.17;31.29;100452.16;4197641;28;20147;-66
2022/03/13 00:32:28;;;;;;;9.05;2.10;;;;;;;21.15;31.40;100441.31;4197194;28;20454;-66
2022/03/13 00:34:29;;;;;;;17.05;2.60;;;;;;;21.15;31.25;100451.63;4197068;28;20033;-66
2022/03/13 00:36:31;;;;;;;12.90;1.70;;;;;;;21.14;31.30;100464.69;4198230;28;20078;-68
2022/03/13 00:38:35;;;;;;;9.05;1.77;;;;;;;21.15;31.22;100474.69;4198047;28;20036;-66
2022/03/13 00:40:37;;;;;;;7.93;1.60;;;;;;;21.15;31.29;100479.44;4197545;28;20047;-66
2022/03/13 00:42:38;;;;;;;10.95;1.67;;;;;;;21.09;30.96;100475.88;4195732;28;20086;-66
2022/03/13 00:44:40;;;;;;;10.95;1.88;;;;;;;21.12;30.90;100480.88;4196287;28;20472;-67
2022/03/13 00:46:41;;;;;;;17.50;2.35;;;;;;;21.11;31.11;100495.88;4196952;28;20048;-67
2022/03/13 00:48:51;;;;;;;6.75;1.67;;;;;;;21.10;31.17;100513.72;4178396;28;20049;-68
2022/03/13 00:50:53;;;;;;;14.80;1.70;;;;;;;21.12;31.20;100517.03;4194889;28;20044;-67
2022/03/13 00:52:55;;;;;;;8.68;1.60;;;;;;;21.12;30.69;100517.03;4196741;28;20549;-68
2022/03/13 00:54:57;;;;;;;6.90;1.00;;;;;;;21.06;30.77;100532.94;4197873;28;20170;-69
2022/03/13 00:56:58;;;;;;;8.10;2.08;;;;;;;21.11;31.11;100542.34;4200811;28;20437;-69
2022/03/13 00:58:59;;;;;;;9.93;1.77;;;;;;;21.10;31.01;100561.00;4215225;28;20024;-75
2022/03/13 01:01:01;;;;;;;9.88;2.47;;;;;;;21.07;31.10;100558.78;4207152;28;20036;-66
2022/03/13 01:03:02;;;;;;;11.35;1.23;;;;;;;21.09;30.95;100570.47;4196910;28;20032;-70
2022/03/13 01:05:07;;;;;;;6.57;1.42;;;;;;;21.09;30.61;100581.59;4197451;28;20040;-70
2022/03/13 01:07:08;;;;;;;;;;;;;;;21.07;30.77;100592.19;4197798;28;20033;-70
2022/03/13 01:09:10;;;;;;;10.82;1.67;;;;;;;21.06;30.88;100579.41;4197498;28;19912;-69
2022/03/13 01:11:11;;;;;;;7.57;1.70;;;;;;;21.10;30.94;100602.72;4202077;28;20078;-69
2022/03/13 01:13:13;;;;;;;5.78;1.40;;;;;;;21.10;31.00;100611.09;4198712;28;20033;-70
2022/03/13 01:15:15;;;;;;;6.50;1.48;;;;;;;21.09;30.86;100620.56;4196721;28;20041;-69
2022/03/13 01:17:20;;;;;;;5.55;1.45;;;;;;;21.06;30.29;100624.72;4202873;28;20036;-70
2022/03/13 01:19:24;;;;;;;10.27;1.58;;;;;;;21.06;30.50;100638.66;4203281;28;20094;-69
2022/03/13 01:21:28;;;;;;;8.23;1.88;;;;;;;21.06;30.42;100643.38;4202636;28;20059;-69
2022/03/13 01:23:32;;;;;;;5.20;1.77;;;;;;;21.06;30.05;100658.13;4202522;28;20086;-69
2022/03/13 01:25:34;;;;;;;11.60;1.50;;;;;;;21.05;30.23;100650.06;4203587;28;20040;-70
2022/03/13 01:27:35;;;;;;;5.78;1.27;;;;;;;21.06;30.10;100673.97;4202744;28;20090;-70
2022/03/13 01:29:37;;;;;;;7.90;1.60;;;;;;;21.05;29.87;100669.53;4202228;28;20102;-69
2022/03/13 01:31:49;;;;;;;4.63;1.40;;;;;;;21.02;30.01;100704.31;4184925;28;20040;-70
2022/03/13 01:34:05;;;;;;;4.82;1.60;;;;;;;20.89;30.06;100681.88;4201382;28;20029;-71
2022/03/13 01:36:06;;;;;;;7.45;1.63;;;;;;;21.06;29.84;100712.94;4198554;28;20102;-71
2022/03/13 01:38:07;;;;;;;7.70;1.42;;;;;;;21.07;29.66;100722.94;4198141;28;20052;-70
2022/03/13 01:40:11;;;;;;;3.97;1.30;;;;;;;21.06;30.04;100719.31;4197936;28;20033;-70
2022/03/13 01:42:12;;;;;;;1.88;1.25;;;;;;;21.06;29.54;100729.63;4198123;28;20033;-70
2022/03/13 01:44:19;;;;;;;3.75;1.30;;;;;;;20.83;29.65;100691.38;4195424;28;20028;-70
2022/03/13 01:46:20;;;;;;;3.83;1.20;;;;;;;21.02;29.51;100742.44;4201156;28;20094;-71
2022/03/13 01:48:26;;;;;;;7.85;1.50;;;;;;;21.07;30.00;100745.19;4201074;28;20068;-70
2022/03/13 01:50:27;;;;;;;;;;;;;;;21.05;29.67;100755.78;4201743;28;20036;-68
2022/03/13 01:52:32;;;;;;;16.10;1.70;;;;;;;21.12;29.47;100753.53;4200292;28;20313;-70
2022/03/13 01:54:34;;;;;;;5.70;1.55;;;;;;;21.06;29.94;100760.22;4200363;28;20033;-69
2022/03/13 01:56:37;;;;;;;9.45;1.40;;;;;;;21.08;29.86;100774.69;4200993;28;20086;-69
2022/03/13 01:58:41;;;;;;;17.88;1.98;;;;;;;21.01;30.06;100765.81;4200487;28;20049;-66
2022/03/13 02:00:42;;;;;;;12.13;2.05;;;;;;;21.06;30.06;100779.69;4200271;28;20037;-65
2022/03/13 02:02:45;;;;;;;11.50;1.88;;;;;;;20.94;29.84;100771.72;4199782;28;20040;-64
2022/03/13 02:04:51;;;;;;;12.95;1.60;;;;;;;21.02;30.55;100795.31;4199620;28;20044;-66
2022/03/13 02:06:58;;;;;;;19.75;1.80;;;;;;;20.98;30.08;100808.97;4200213;28;20496;-65
2022/03/13 02:09:00;;;;;;;27.73;2.80;;;;;;;21.01;30.39;100818.69;4200411;28;20033;-64
2022/03/13 02:11:02;;;;;;;27.85;3.85;;;;;;;20.98;30.45;100820.09;4200315;28;20032;-65
2022/03/13 02:13:03;;;;;;;39.15;4.70;;;;;;;21.01;30.11;100835.38;4199104;28;20040;-65
2022/03/13 02:15:05;;;;;;;50.75;5.03;;;;;;;20.99;30.23;100843.19;4199700;28;20480;-66
2022/03/13 02:17:06;;;;;;;46.50;4.60;;;;;;;21.00;30.62;100847.63;4199925;28;20483;-65
2022/03/13 02:19:08;;;;;;;49.47;4.65;;;;;;;20.96;30.46;100849.31;4194433;28;20044;-65
2022/03/13 02:21:09;;;;;;;45.83;4.60;;;;;;;20.97;30.67;100867.66;4199549;28;20048;-66
2022/03/13 02:23:30;;;;;;;45.25;5.60;;;;;;;20.94;30.52;100851.56;4199421;28;20090;-64
2022/03/13 02:25:34;;;;;;;52.45;4.95;;;;;;;20.96;30.67;100866.00;4181289;28;20087;-64
2022/03/13 02:27:36;;;;;;;47.30;5.53;;;;;;;20.94;30.47;100873.81;4199340;28;20041;-65
2022/03/13 02:29:37;;;;;;;30.75;4.13;;;;;;;20.96;30.66;100894.63;4199182;28;20141;-65
2022/03/13 02:31:42;;;;;;;45.28;4.97;;;;;;;20.95;30.72;100889.38;4198888;28;20484;-63
2022/03/13 02:33:43;;;;;;;39.47;4.93;;;;;;;20.94;30.51;100898.84;4199435;28;20040;-64
2022/03/13 02:36:03;;;;;;;37.78;4.43;;;;;;;20.93;30.59;100911.88;4200343;28;20032;-63
2022/03/13 02:38:04;;;;;;;30.60;4.30;;;;;;;20.94;30.49;100908.00;4181847;28;20091;-64
2022/03/13 02:40:11;;;;;;;32.10;5.22;;;;;;;20.93;30.48;100917.44;4199874;28;20044;-65
2022/03/13 02:42:12;;;;;;;34.60;4.75;;;;;;;20.94;31.02;100923.88;4198747;28;20097;-65
2022/03/13 02:44:17;;;;;;;47.95;4.55;;;;;;;20.91;30.64;100936.38;4199256;28;20040;-64
2022/03/13 02:46:21;;;;;;;38.13;5.43;;;;;;;20.93;30.63;100938.88;4198701;28;20109;-66
2022/03/13 02:48:22;;;;;;;41.00;5.57;;;;;;;20.92;30.70;100940.81;4199393;28;20546;-66
2022/03/13 02:50:24;;;;;;;34.53;5.07;;;;;;;20.91;30.87;100952.25;4199951;28;20074;-65
2022/03/13 02:52:28;;;;;;;24.95;4.30;;;;;;;20.89;30.85;100954.44;4198876;28;20036;-66
2022/03/13 02:54:30;;;;;;;35.83;5.67;;;;;;;20.90;30.68;100956.16;4199346;28;20037;-67
2022/03/13 02:56:32;;;;;;;34.13;4.35;;;;;;;20.89;30.77;100966.44;4198249;28;20761;-67
2022/03/13 02:58:36;;;;;;;25.85;3.90;;;;;;;20.89;30.57;100985.91;4199150;28;20028;-67
2022/03/13 03:00:48;;;;;;;26.80;4.47;;;;;;;20.86;30.89;100989.25;4199164;28;20040;-66
2022/03/13 03:02:50;;;;;;;32.67;4.88;;;;;;;20.83;30.73;100977.84;4199329;28;20078;-66
2022/03/13 03:04:54;;;;;;;26.38;4.20;;;;;;;20.88;30.90;100998.13;4198210;28;20036;-67
2022/03/13 03:07:03;;;;;;;28.10;4.60;;;;;;;20.88;31.13;101002.84;4198627;28;20086;-66
2022/03/13 03:09:07;;;;;;;25.13;4.13;;;;;;;20.86;30.85;100994.81;4198958;28;20044;-66
2022/03/13 03:11:09;;;;;;;24.88;4.25;;;;;;;20.86;31.13;100983.69;4198566;28;20470;-67
2022/03/13 03:13:12;;;;;;;26.63;4.00;;;;;;;20.86;30.94;101007.88;4199387;28;20438;-66
2022/03/13 03:15:14;;;;;;;21.92;3.35;;;;;;;20.81;30.69;101015.09;4196445;28;20037;-66
2022/03/13 03:17:16;;;;;;;29.88;4.20;;;;;;;20.84;30.76;101018.44;4198763;28;20045;-68
2022/03/13 03:19:17;;;;;;;15.95;2.78;;;;;;;20.84;30.74;101024.00;4192472;28;20036;-67
2022/03/13 03:21:18;;;;;;;26.75;4.38;;;;;;;20.82;30.85;101029.84;4198977;28;20098;-67
2022/03/13 03:23:20;;;;;;;20.10;3.72;;;;;;;20.73;30.90;101023.16;4198621;28;20040;-66
2022/03/13 03:25:27;;;;;;;27.85;4.05;;;;;;;20.81;31.07;101036.53;4198038;28;20488;-66
2022/03/13 03:27:31;;;;;;;24.95;3.50;;;;;;;20.75;31.12;101038.44;4198736;28;20041;-67
2022/03/13 03:29:32;;;;;;;25.85;4.45;;;;;;;20.75;30.89;101041.22;4199120;28;20029;-66
2022/03/13 03:31:40;;;;;;;14.88;3.53;;;;;;;20.60;31.04;101020.94;4198163;28;20550;-66
2022/03/13 03:33:42;;;;;;;19.55;3.08;;;;;;;20.76;30.85;101056.81;4198712;28;20044;-65
2022/03/13 03:35:43;;;;;;;18.35;3.45;;;;;;;20.77;30.63;101058.50;4199371;28;20020;-67
2022/03/13 03:37:46;;;;;;;18.60;3.33;;;;;;;20.78;30.80;101076.84;4199029;28;20045;-67
2022/03/13 03:39:47;;;;;;;19.73;3.80;;;;;;;20.72;30.87;101066.84;4198521;28;20036;-65
2022/03/13 03:41:50;;;;;;;22.33;3.63;;;;;;;20.72;31.06;101083.53;4197659;28;20040;-66
2022/03/13 03:43:52;;;;;;;18.10;3.13;;;;;;;20.77;30.70;101091.03;4180781;28;20040;-67
2022/03/13 03:45:56;;;;;;;15.25;2.65;;;;;;;20.77;31.03;101091.88;4198341;28;20437;-67
2022/03/13 03:47:59;;;;;;;17.83;2.85;;;;;;;20.76;31.00;101094.94;4198478;28;20075;-66
2022/03/13 03:50:04;;;;;;;15.45;3.63;;;;;;;20.76;30.71;101106.06;4180847;28;20045;-66
2022/03/13 03:52:05;;;;;;;16.02;2.95;;;;;;;20.75;31.05;101105.19;4197490;28;20044;-67
2022/03/13 03:54:08;;;;;;;19.83;2.95;;;;;;;20.76;30.76;101119.97;4197367;28;20032;-66
2022/03/13 03:56:09;;;;;;;16.85;2.88;;;;;;;20.63;30.85;101089.91;4198385;28;20040;-66
2022/03/13 03:58:13;;;;;;;14.43;3.40;;;;;;;20.74;31.03;101125.78;4198243;28;20407;-66
2022/03/13 04:00:15;;;;;;;11.32;3.35;;;;;;;20.75;30.61;101132.16;4198656;28;20091;-67
2022/03/13 04:02:20;;;;;;;15.13;2.97;;;;;;;20.75;30.80;101138.56;4197645;28;20036;-67
2022/03/13 04:04:21;;;;;;;11.15;2.08;;;;;;;20.74;30.64;101134.13;4198410;28;20036;-66
2022/03/13 04:06:22;;;;;;;17.17;2.88;;;;;;;20.75;30.64;101137.72;4197835;28;20036;-66
2022/03/13 04:08:24;;;;;;;14.18;2.33;;;;;;;20.73;30.85;101156.66;4197773;28;20094;-66
2022/03/13 04:10:26;;;;;;;11.98;2.72;;;;;;;20.72;30.92;101150.25;4197826;28;20049;-66
2022/03/13 04:12:28;;;;;;;12.15;2.55;;;;;;;20.73;30.77;101162.22;4197258;28;20106;-67
2022/03/13 04:14:30;;;;;;;9.23;2.60;;;;;;;20.72;30.71;101163.34;4197540;28;20106;-65
2022/03/13 04:16:31;;;;;;;13.10;3.42;;;;;;;20.72;31.04;101160.56;4197807;28;20037;-67
2022/03/13 04:18:36;;;;;;;14.13;2.65;;;;;;;20.72;30.62;101172.50;4197001;28;20098;-67
2022/03/13 04:20:37;;;;;;;10.23;1.83;;;;;;;20.73;30.95;101178.91;4179803;28;20566;-67
2022/03/13 04:22:39;;;;;;;10.20;2.28;;;;;;;20.71;30.91;101176.41;4196532;28;20090;-66
2022/03/13 04:24:40;;;;;;;16.17;1.98;;;;;;;20.70;30.59;101191.41;4197905;28;20040;-66
2022/03/13 04:26:42;;;;;;;11.23;1.90;;;;;;;20.68;30.68;101182.50;4198206;28;20082;-67
2022/03/13 04:28:44;;;;;;;11.38;2.20;;;;;;;20.68;30.53;101193.63;4197260;28;20098;-67
2022/03/13 04:30:47;;;;;;;10.48;1.75;;;;;;;20.68;30.86;101199.19;4197872;28;20048;-66
2022/03/13 04:32:48;;;;;;;10.82;2.33;;;;;;;20.67;30.56;101197.53;4197086;28;20094;-67
2022/03/13 04:34:52;;;;;;;10.93;1.92;;;;;;;20.67;30.64;101222.56;4197878;28;20090;-66
2022/03/13 04:36:54;;;;;;;11.90;2.25;;;;;;;20.67;30.78;101235.63;4197687;28;20048;-65
2022/03/13 04:39:01;;;;;;;7.25;1.42;;;;;;;20.66;30.76;101233.91;4197368;28;20428;-65
2022/03/13 04:41:02;;;;;;;5.93;1.80;;;;;;;20.66;30.91;101229.19;4197994;28;20077;-66
2022/03/13 04:43:07;;;;;;;11.25;2.10;;;;;;;20.65;30.56;101238.66;4197084;28;20044;-65
2022/03/13 04:45:09;;;;;;;7.05;1.73;;;;;;;20.65;30.51;101252.56;4197062;28;20044;-65
2022/03/13 04:47:10;;;;;;;8.80;1.58;;;;;;;20.64;30.48;101239.78;4197492;28;20040;-65
2022/03/13 04:49:12;;;;;;;12.65;2.28;;;;;;;20.65;30.61;101251.72;4197395;28;20090;-66
2022/03/13 04:51:13;;;;;;;7.32;1.80;;;;;;;20.58;30.76;101238.09;4197218;28;20091;-67
2022/03/13 04:53:16;;;;;;;8.25;2.10;;;;;;;20.59;30.91;101250.03;4197406;28;20040;-65
2022/03/13 04:55:23;;;;;;;8.85;1.70;;;;;;;20.63;30.77;101246.44;4197647;28;20122;-67
2022/03/13 04:57:25;;;;;;;7.90;1.65;;;;;;;20.64;30.70;101269.53;4197750;28;20565;-65
2022/03/13 04:59:35;;;;;;;5.05;1.52;;;;;;;20.62;30.86;101266.16;4197484;28;20431;-67
2022/03/13 05:01:36;;;;;;;2.92;1.63;;;;;;;20.56;30.60;101256.97;4197611;28;20094;-67
2022/03/13 05:03:38;;;;;;;9.05;1.63;;;;;;;20.62;30.49;101292.06;4197924;28;20032;-67
2022/03/13 05:05:40;;;;;;;4.95;1.33;;;;;;;20.60;30.71;101290.63;4194474;28;20086;-66
2022/03/13 05:07:41;;;;;;;5.43;1.50;;;;;;;20.61;30.58;101290.34;4197448;28;20097;-66
2022/03/13 05:09:43;;;;;;;8.38;1.60;;;;;;;20.62;30.74;101293.97;4197434;28;20373;-66
2022/03/13 05:11:47;;;;;;;7.78;1.63;;;;;;;20.60;30.33;101297.03;4197669;28;20032;-66
2022/03/13 05:13:49;;;;;;;5.03;1.10;;;;;;;20.59;30.67;101298.13;4178749;28;20037;-66
2022/03/13 05:15:51;;;;;;;6.57;1.40;;;;;;;20.60;30.49;101307.31;4179183;28;20340;-67
2022/03/13 05:17:52;;;;;;;6.22;1.48;;;;;;;20.52;30.78;101300.31;4197116;28;20103;-66
2022/03/13 05:19:54;;;;;;;5.18;1.88;;;;;;;20.58;30.82;101318.72;4198628;28;20102;-67
2022/03/13 05:21:55;;;;;;;3.58;1.38;;;;;;;20.58;30.72;101315.09;4202054;28;20377;-66
2022/03/13 05:23:59;;;;;;;3.55;1.40;;;;;;;20.55;30.55;101316.47;4200392;28;20442;-66
2022/03/13 05:26:01;;;;;;;5.40;1.27;;;;;;;20.56;30.42;101335.66;4201330;28;20476;-66
2022/03/13 05:28:03;;;;;;;2.63;1.10;;;;;;;20.55;30.52;101333.16;4200772;28;20506;-66
2022/03/13 05:30:05;;;;;;;5.50;1.83;;;;;;;20.52;30.62;101334.50;4200557;28;20093;-65
2022/03/13 05:32:10;;;;;;;5.32;1.50;;;;;;;20.54;30.73;101339.81;4183030;28;20456;-66
2022/03/13 05:34:14;;;;;;;4.67;1.20;;;;;;;20.55;30.52;101338.72;4200634;28;20032;-66
2022/03/13 05:36:16;;;;;;;5.93;1.40;;;;;;;20.52;30.68;101333.66;4200666;28;20063;-65
2022/03/13 05:38:17;;;;;;;5.43;1.40;;;;;;;20.52;30.56;101330.91;4200962;28;20032;-66
2022/03/13 05:40:20;;;;;;;2.75;1.10;;;;;;;20.55;30.46;101338.72;4200691;28;20049;-66
2022/03/13 05:42:24;;;;;;;4.93;1.10;;;;;;;20.52;30.26;101344.78;4199493;28;20118;-66
2022/03/13 05:44:29;;;;;;;2.60;1.40;;;;;;;20.53;30.55;101354.84;4200599;28;20040;-66
2022/03/13 05:46:30;;;;;;;2.28;1.30;;;;;;;20.53;30.47;101357.63;4199709;28;20036;-67
2022/03/13 05:48:39;;;;;;;4.43;1.23;;;;;;;20.50;30.41;101363.69;4200797;28;20041;-67
2022/03/13 05:50:45;;;;;;;3.40;1.40;;;;;;;20.52;30.63;101373.44;4200141;28;20545;-66
2022/03/13 05:52:49;;;;;;;3.35;1.15;;;;;;;20.53;30.44;101379.84;4199781;28;20087;-66
2022/03/13 05:54:50;;;;;;;3.30;0.90;;;;;;;20.50;30.32;101377.59;4200289;28;20098;-66
2022/03/13 05:57:02;;;;;;;2.92;1.05;;;;;;;20.47;30.64;101381.75;4201043;28;20040;-66
2022/03/13 05:59:03;;;;;;;2.47;1.10;;;;;;;20.51;30.54;101393.16;4200087;28;20036;-66
2022/03/13 06:01:05;;;;;;;2.63;1.13;;;;;;;20.50;30.68;101397.06;4200513;28;20037;-66
2022/03/13 06:03:08;;;;;;;3.83;1.10;;;;;;;20.48;30.45;101397.34;4200148;28;20113;-66
2022/03/13 06:05:11;;;;;;;2.55;1.15;;;;;;;20.49;30.48;101398.16;4199657;28;20032;-65
2022/03/13 06:07:12;;;;;;;1.38;0.95;;;;;;;20.35;30.55;101388.59;4199660;28;20037;-66
2022/03/13 06:09:13;;;;;;;3.85;0.82;;;;;;;20.47;30.69;101397.56;4200101;28;20044;-65
2022/03/13 06:11:18;;;;;;;3.88;1.20;;;;;;;20.43;30.66;101401.97;4199600;28;20044;-65
2022/03/13 06:13:21;;;;;;;1.97;0.80;;;;;;;20.46;30.61;101423.69;4199846;28;20036;-67
2022/03/13 06:15:23;;;;;;;1.48;0.98;;;;;;;20.47;30.86;101411.44;4200090;28;20311;-66
2022/03/13 06:17:27;;;;;;;2.78;1.00;;;;;;;20.46;30.71;101429.25;4199808;28;20106;-66
2022/03/13 06:19:29;;;;;;;1.48;0.95;;;;;;;20.43;30.75;101408.34;4199988;28;20044;-67
2022/03/13 06:21:32;;;;;;;2.70;0.90;;;;;;;20.42;30.57;101440.06;4200139;28;20028;-65
2022/03/13 06:23:33;;;;;;;1.45;1.15;;;;;;;20.45;30.36;101441.47;4199502;28;20036;-65
2022/03/13 06:25:35;;;;;;;1.52;0.63;;;;;;;20.41;30.26;101438.38;4199757;28;20525;-66
2022/03/13 06:27:38;;;;;;;4.32;0.90;;;;;;;20.43;30.52;101452.00;4199946;28;20037;-65
2022/03/13 06:29:40;;;;;;;1.70;0.85;;;;;;;20.43;30.68;101460.34;4199444;28;20044;-65
2022/03/13 06:31:45;;;;;;;1.75;1.00;;;;;;;20.41;30.76;101465.34;4198673;28;20090;-66
2022/03/13 06:33:46;;;;;;;1.63;0.75;;;;;;;20.43;30.56;101468.69;4199690;28;20044;-65
2022/03/13 06:35:48;;;;;;;3.15;0.95;;;;;;;20.42;30.81;101467.84;4199696;28;20040;-66
2022/03/13 06:37:52;;;;;;;3.05;1.50;;;;;;;20.35;30.41;101466.41;4199472;28;20048;-66
2022/03/13 06:39:53;;;;;;;3.40;1.10;;;;;;;20.37;30.67;101475.31;4199181;28;20109;-66
2022/03/13 06:41:57;;;;;;;1.77;0.95;;;;;;;20.41;30.28;101487.59;4199692;28;20025;-66
2022/03/13 06:43:59;;;;;;;2.65;0.88;;;;;;;20.22;30.47;101457.41;4199482;28;20040;-66
2022/03/13 06:46:02;;;;;;;1.80;0.82;;;;;;;20.41;30.79;101493.13;4181916;28;20029;-66
2022/03/13 06:48:04;;;;;;;3.45;0.88;;;;;;;20.31;30.66;101491.94;4199736;28;20045;-65
2022/03/13 06:50:09;;;;;;;1.95;0.88;;;;;;;20.38;30.40;101505.59;4199768;28;20110;-66
2022/03/13 06:52:10;;;;;;;;;;;;;;;20.37;30.61;101514.22;4199408;28;20079;-67
2022/03/13 06:54:14;;;;;;;1.10;0.70;;;;;;;20.42;30.66;101511.50;4199252;28;19942;-66
2022/03/13 06:56:21;;;;;;;2.58;0.95;;;;;;;20.45;30.33;101522.09;4198897;28;20044;-66
2022/03/13 06:58:23;;;;;;;1.95;0.80;;;;;;;20.42;30.59;101519.81;4199153;28;20036;-66
2022/03/13 07:00:24;;;;;;;2.08;1.00;;;;;;;20.41;30.30;101526.50;4199280;28;20537;-66
2022/03/13 07:02:26;;;;;;;1.80;1.00;;;;;;;20.39;30.66;101528.69;4198727;28;20062;-66
2022/03/13 07:04:30;;;;;;;1.15;0.90;;;;;;;20.39;30.57;101534.25;4198924;28;20036;-66
2022/03/13 07:06:34;;;;;;;1.90;0.90;;;;;;;20.37;30.76;101540.06;4198800;28;20114;-66
2022/03/13 07:08:35;;;;;;;1.15;0.77;;;;;;;20.32;30.71;101531.69;4198742;28;20044;-66
2022/03/13 07:10:37;;;;;;;1.23;0.88;;;;;;;20.30;30.63;101537.53;4198519;28;20044;-66
2022/03/13 07:12:40;;;;;;;1.15;0.60;;;;;;;20.34;30.24;101559.22;4198898;28;20094;-66
2022/03/13 07:14:46;;;;;;;1.08;0.70;;;;;;;20.35;30.50;101555.34;4198713;28;20094;-66
2022/03/13 07:16:48;;;;;;;0.75;0.75;;;;;;;20.34;30.24;101564.78;4198808;28;20142;-66
2022/03/13 07:18:50;;;;;;;1.48;0.95;;;;;;;20.35;30.75;101572.03;4181458;28;20061;-66
2022/03/13 07:20:51;;;;;;;1.35;0.70;;;;;;;20.29;30.65;101569.16;4198208;28;20399;-66
2022/03/13 07:22:53;;;;;;;1.38;0.70;;;;;;;20.29;30.31;101566.41;4198517;28;20040;-66
2022/03/13 07:24:54;;;;;;;1.08;0.80;;;;;;;20.35;30.41;101572.03;4198246;28;20048;-66
2022/03/13 07:26:56;;;;;;;1.42;1.00;;;;;;;20.34;30.56;101587.00;4198479;28;20461;-66
2022/03/13 07:28:57;;;;;;;1.70;0.93;;;;;;;20.33;30.68;101596.44;4198613;28;20102;-66
2022/03/13 07:30:58;;;;;;;1.80;0.95;;;;;;;20.26;30.71;101591.94;4198251;28;20036;-66
2022/03/13 07:33:02;;;;;;;1.67;0.75;;;;;;;20.33;30.46;101607.56;4198446;28;20519;-66
2022/03/13 07:35:04;;;;;;;0.68;0.50;;;;;;;20.32;30.71;101609.50;4198430;28;20426;-66
2022/03/13 07:37:06;;;;;;;0.65;0.60;;;;;;;20.33;30.42;101602.00;4199046;28;20033;-65
2022/03/13 07:39:10;;;;;;;1.02;0.60;;;;;;;20.30;30.34;101603.38;4198541;28;20094;-66
2022/03/13 07:41:12;;;;;;;1.23;0.80;;;;;;;20.26;30.68;101597.50;4198075;28;20040;-66
2022/03/13 07:43:13;;;;;;;1.05;0.90;;;;;;;20.30;30.54;101604.22;4197722;28;20032;-66
2022/03/13 07:45:15;;;;;;;1.40;0.90;;;;;;;20.31;30.69;101608.69;4198522;28;20106;-66
2022/03/13 07:47:17;;;;;;;0.52;0.52;;;;;;;20.30;30.19;101608.94;4198409;28;20040;-66
2022/03/13 07:49:19;;;;;;;0.77;0.60;;;;;;;20.31;30.31;101630.06;4198096;28;20118;-66
2022/03/13 07:51:20;;;;;;;1.00;0.60;;;;;;;20.31;30.35;101624.53;4198450;28;20086;-66
2022/03/13 07:53:26;;;;;;;1.23;0.70;;;;;;;20.29;30.39;101624.75;4198212;28;20443;-66
2022/03/13 07:55:31;;;;;;;0.93;0.65;;;;;;;20.21;30.35;101610.50;4198281;28;20036;-66
2022/03/13 07:57:32;;;;;;;2.00;0.80;;;;;;;20.26;30.64;101636.41;4198251;28;20044;-66
2022/03/13 07:59:33;;;;;;;1.13;0.65;;;;;;;20.29;30.51;101649.78;4197872;28;20278;-66
2022/03/13 08:01:35;;;;;;;0.55;0.55;;;;;;;20.14;30.25;101626.53;4197828;28;20090;-66
2022/03/13 08:03:38;;;;;;;1.00;0.80;;;;;;;20.29;30.57;101649.78;4198297;28;20549;-66
2022/03/13 08:05:42;;;;;;;0.70;0.60;;;;;;;20.29;30.56;101674.78;4197856;28;20036;-66
2022/03/13 08:07:45;;;;;;;1.08;0.77;;;;;;;20.28;30.38;101673.13;4198350;28;20050;-66
2022/03/13 08:09:49;;;;;;;1.23;0.65;;;;;;;20.23;30.15;101661.94;4197741;28;20041;-66
2022/03/13 08:11:53;;;;;;;0.52;0.50;;;;;;;20.27;30.56;101682.56;4196926;28;20190;-66
2022/03/13 08:13:55;;;;;;;1.03;0.80;;;;;;;20.24;30.36;101683.06;4197616;28;20037;-66
2022/03/13 08:15:59;;;;;;;1.92;0.68;;;;;;;20.26;30.18;101700.34;4197863;28;20336;-66
2022/03/13 08:18:00;;;;;;;0.70;0.70;;;;;;;20.26;30.64;101708.69;4197847;28;20186;-66
2022/03/13 08:20:06;;;;;;;1.08;0.80;;;;;;;20.26;30.26;101722.56;4197985;28;20037;-66
2022/03/13 08:22:07;;;;;;;0.65;0.57;;;;;;;20.14;30.56;101710.72;4197563;28;20102;-66
2022/03/13 08:24:15;;;;;;;1.05;0.50;;;;;;;20.26;30.51;101733.69;4197638;28;20563;-66
2022/03/13 08:26:19;;;;;;;0.85;0.75;;;;;;;20.25;30.56;101729.25;4197693;28;20036;-66
2022/03/13 08:28:20;;;;;;;1.40;0.50;;;;;;;20.25;30.21;101745.03;4197606;28;20106;-66
2022/03/13 08:30:23;;;;;;;0.65;0.57;;;;;;;20.25;30.02;101742.25;4197377;28;20045;-66
2022/03/13 08:32:24;;;;;;;0.80;0.60;;;;;;;20.25;30.48;101762.59;4197428;28;20040;-66
2022/03/13 08:34:28;;;;;;;1.25;0.73;;;;;;;20.25;30.28;101768.16;4197528;28;20543;-66
2022/03/13 08:36:30;;;;;;;0.82;0.60;;;;;;;20.25;30.50;101773.72;4197671;28;20098;-65
2022/03/13 08:38:34;;;;;;;0.95;0.63;;;;;;;20.24;30.51;101780.34;4197579;28;20036;-65
2022/03/13 08:40:36;;;;;;;0.60;0.60;;;;;;;20.18;30.24;101778.59;4197733;28;20036;-65
2022/03/13 08:42:40;;;;;;;0.60;0.60;;;;;;;20.21;30.31;101789.22;4197951;28;20078;-66
2022/03/13 08:44:42;;;;;;;0.60;0.50;;;;;;;20.19;30.13;101796.94;4197807;28;20029;-66
2022/03/13 08:46:43;;;;;;;0.82;0.60;;;;;;;20.21;30.37;101805.88;4197741;28;20419;-66
2022/03/13 08:48:44;;;;;;;0.47;0.47;;;;;;;20.22;30.49;101810.34;4197803;28;20049;-66
2022/03/13 08:50:46;;;;;;;1.13;0.82;;;;;;;20.20;30.05;101809.72;4197469;28;20040;-66
2022/03/13 08:52:47;;;;;;;0.57;0.50;;;;;;;20.19;30.39;101815.56;4197373;28;20118;-66
2022/03/13 08:54:49;;;;;;;0.60;0.60;;;;;;;20.22;30.49;101829.78;4196652;28;20044;-66
2022/03/13 08:56:50;;;;;;;0.98;0.70;;;;;;;20.21;30.14;101833.66;4198075;28;20082;-66
2022/03/13 08:58:57;;;;;;;1.48;0.68;;;;;;;20.20;30.06;101831.97;4197396;28;20094;-66
2022/03/13 09:01:00;;;;;;;0.85;0.77;;;;;;;20.20;29.97;101833.91;4197501;28;20472;-66
2022/03/13 09:03:01;;;;;;;1.75;0.73;;;;;;;20.20;30.06;101848.63;4197428;28;20048;-66
2022/03/13 09:05:03;;;;;;;0.90;0.60;;;;;;;20.14;30.32;101846.06;4197432;28;20070;-66
2022/03/13 09:07:04;;;;;;;1.02;0.60;;;;;;;20.18;30.33;101861.13;4197525;28;20040;-65
2022/03/13 09:09:08;;;;;;;0.70;0.68;;;;;;;20.18;30.55;101863.91;4197210;28;20036;-66
2022/03/13 09:11:10;;;;;;;0.60;0.60;;;;;;;20.17;30.26;101868.63;4197730;28;20399;-66
2022/03/13 09:13:13;;;;;;;0.57;0.57;;;;;;;20.17;30.10;101876.97;4196893;28;20044;-66
2022/03/13 09:15:14;;;;;;;0.60;0.60;;;;;;;20.16;30.31;101871.63;4197219;28;20480;-66
2022/03/13 09:17:17;;;;;;;1.10;0.70;;;;;;;20.12;30.12;101874.09;4196728;28;20351;-65
2022/03/13 09:19:19;;;;;;;0.55;0.50;;;;;;;20.15;30.20;101894.97;4197566;28;20044;-66
2022/03/13 09:21:20;;;;;;;0.90;0.70;;;;;;;20.15;30.42;101909.69;4197522;28;20082;-66
2022/03/13 09:23:24;;;;;;;1.27;0.68;;;;;;;20.15;30.23;101911.66;4197180;28;20449;-66
2022/03/13 09:25:26;;;;;;;0.50;0.43;;;;;;;20.16;30.21;101916.97;4197465;28;20036;-66
2022/03/13 09:27:29;;;;;;;0.60;0.43;;;;;;;20.15;30.45;101917.19;4197793;28;20032;-66
2022/03/13 09:29:31;;;;;;;0.95;0.65;;;;;;;20.13;29.98;101925.78;4197326;28;20086;-66
2022/03/13 09:31:32;;;;;;;0.68;0.47;;;;;;;20.15;29.89;101931.94;4196904;28;20546;-65